Time;durP1;ratioP1;P1;durP2;ratioP2;P2;SDS_P1;SDS_P2;PMS_P1;PMS_P2;Temp;Humidity;BMP_temperature;BMP_pressure;BME280_temperature;BME280_humidity;BME280_pressure;Samples;Min_cycle;Max_cycle;Signal;HPM_P1;HPM_P2
2022/09/21 00:00:49;;;;;;;6.37;5.97;;;12.40;99.90;;;;;;5015386;28;20190;-69
2022/09/21 00:03:15;;;;;;;6.27;5.70;;;12.40;99.90;;;;;;5015901;28;20622;-67
2022/09/21 00:05:41;;;;;;;5.97;5.33;;;12.40;99.90;;;;;;5016022;28;20176;-67
2022/09/21 00:08:09;;;;;;;6.00;5.40;;;12.40;99.90;;;;;;5015168;28;20421;-67
2022/09/21 00:10:35;;;;;;;7.30;5.20;;;12.40;99.90;;;;;;5015637;28;20207;-67
2022/09/21 00:13:01;;;;;;;6.97;6.20;;;12.40;99.90;;;;;;5015112;28;20420;-67
2022/09/21 00:15:28;;;;;;;6.10;5.50;;;12.40;99.90;;;;;;5015563;28;20737;-67
2022/09/21 00:17:56;;;;;;;6.40;5.73;;;12.50;99.90;;;;;;5014688;28;20765;-67
2022/09/21 00:20:23;;;;;;;6.03;5.53;;;12.40;99.90;;;;;;5015521;28;20429;-67
2022/09/21 00:22:50;;;;;;;5.30;4.90;;;12.40;99.90;;;;;;5015557;28;20411;-67
2022/09/21 00:25:16;;;;;;;5.80;5.23;;;12.40;99.90;;;;;;5014716;28;20429;-67
2022/09/21 00:27:42;;;;;;;5.90;5.40;;;12.40;99.90;;;;;;5015414;28;20836;-67
2022/09/21 00:30:09;;;;;;;5.50;5.03;;;12.40;99.90;;;;;;5015009;28;20448;-67
2022/09/21 00:32:36;;;;;;;5.47;5.17;;;12.40;99.90;;;;;;5015305;28;20183;-67
2022/09/21 00:35:03;;;;;;;5.90;5.00;;;12.40;99.90;;;;;;5014502;28;20515;-67
2022/09/21 00:37:29;;;;;;;4.73;4.43;;;12.40;99.90;;;;;;5015526;28;20401;-67
2022/09/21 00:39:55;;;;;;;5.17;4.77;;;12.50;99.90;;;;;;5014944;28;20775;-67
2022/09/21 00:42:25;;;;;;;5.33;4.93;;;12.40;99.90;;;;;;5015145;28;20425;-67
2022/09/21 00:44:51;;;;;;;4.97;4.57;;;12.30;99.90;;;;;;5014016;28;20417;-76
2022/09/21 00:47:21;;;;;;;4.67;4.17;;;12.30;99.90;;;;;;5015060;28;20409;-67
2022/09/21 00:49:53;;;;;;;4.23;4.00;;;12.30;99.90;;;;;;5015110;28;20532;-67
2022/09/21 00:52:19;;;;;;;4.53;4.23;;;12.30;99.90;;;;;;5013899;28;20453;-67
2022/09/21 00:54:54;;;;;;;4.70;4.40;;;12.30;99.90;;;;;;5013407;28;20432;-67
2022/09/21 00:57:23;;;;;;;4.50;4.20;;;12.30;99.90;;;;;;5015090;28;20479;-67
2022/09/21 00:59:56;;;;;;;5.30;4.90;;;12.30;99.90;;;;;;5014815;28;20464;-67
2022/09/21 01:02:22;;;;;;;6.10;4.43;;;12.30;99.90;;;;;;5014870;28;20420;-67
2022/09/21 01:04:52;;;;;;;5.50;4.97;;;12.30;99.90;;;;;;5014474;28;20422;-67
2022/09/21 01:07:22;;;;;;;5.40;5.03;;;12.20;99.90;;;;;;5014836;28;20394;-67
2022/09/21 01:09:52;;;;;;;5.20;4.80;;;12.20;99.90;;;;;;5014783;28;20504;-67
2022/09/21 01:12:43;;;;;;;5.70;5.20;;;12.20;99.90;;;;;;4997095;28;20443;-67
2022/09/21 01:15:35;;;;;;;5.13;4.60;;;12.20;99.90;;;;;;5014071;28;20401;-67
2022/09/21 01:18:14;;;;;;;4.80;4.40;;;12.10;99.90;;;;;;4979483;28;20408;-67
2022/09/21 01:21:12;;;;;;;5.10;4.70;;;12.10;99.90;;;;;;5014482;28;20409;-67
2022/09/21 01:23:48;;;;;;;5.70;5.30;;;12.10;99.90;;;;;;5002452;28;20418;-67
2022/09/21 01:26:19;;;;;;;6.63;5.10;;;12.10;99.90;;;;;;5012918;28;20525;-67
2022/09/21 01:29:20;;;;;;;5.50;4.97;;;12.10;99.90;;;;;;5013969;28;20415;-67
2022/09/21 01:32:04;;;;;;;5.00;4.70;;;12.10;99.90;;;;;;5014369;28;20504;-67
2022/09/21 01:34:54;;;;;;;5.77;5.20;;;12.10;99.90;;;;;;5014225;28;20463;-67
2022/09/21 01:37:26;;;;;;;5.30;4.90;;;12.00;99.90;;;;;;4994615;28;20425;-67
2022/09/21 01:39:58;;;;;;;5.67;5.17;;;12.00;99.90;;;;;;4992686;28;20434;-67
2022/09/21 01:42:26;;;;;;;4.70;4.40;;;12.00;99.90;;;;;;4994558;28;20418;-67
2022/09/21 01:44:54;;;;;;;5.87;4.40;;;12.00;99.90;;;;;;4994394;28;20410;-68
2022/09/21 01:47:21;;;;;;;5.00;4.10;;;12.00;99.90;;;;;;4994358;28;20449;-67
2022/09/21 01:49:52;;;;;;;4.77;4.40;;;12.10;99.90;;;;;;4994270;28;20421;-67
2022/09/21 01:52:47;;;;;;;5.07;4.67;;;12.00;99.90;;;;;;4992391;28;20465;-67
2022/09/21 01:55:20;;;;;;;4.50;4.20;;;12.00;99.90;;;;;;4992200;28;20434;-67
2022/09/21 01:58:10;;;;;;;6.30;4.23;;;12.00;99.90;;;;;;4959627;28;20816;-67
2022/09/21 02:00:38;;;;;;;4.83;4.47;;;12.00;99.90;;;;;;4994253;28;20417;-67
2022/09/21 02:03:07;;;;;;;4.73;4.43;;;11.90;99.90;;;;;;4993466;28;20505;-67
2022/09/21 02:05:33;;;;;;;5.10;4.73;;;12.00;99.90;;;;;;4994091;28;20415;-67
2022/09/21 02:07:59;;;;;;;4.80;4.40;;;12.00;99.90;;;;;;4993376;28;20410;-68
2022/09/21 02:10:33;;;;;;;4.20;3.87;;;11.90;99.90;;;;;;4993762;28;20848;-67
2022/09/21 02:13:05;;;;;;;4.10;3.70;;;11.90;99.90;;;;;;4993325;28;20398;-67
2022/09/21 02:15:44;;;;;;;6.00;4.53;;;11.80;99.90;;;;;;4994285;28;20424;-67
2022/09/21 02:18:39;;;;;;;4.77;4.47;;;11.80;99.90;;;;;;4993245;28;20802;-66
2022/09/21 02:21:16;;;;;;;4.30;4.00;;;11.80;99.90;;;;;;4993221;28;20401;-67
2022/09/21 02:23:51;;;;;;;5.70;5.17;;;11.80;99.90;;;;;;4993773;28;20401;-67
2022/09/21 02:26:29;;;;;;;5.00;4.57;;;11.80;99.90;;;;;;4991302;28;20439;-67
2022/09/21 02:29:00;;;;;;;5.70;5.20;;;11.80;99.90;;;;;;4993975;28;20410;-67
2022/09/21 02:31:40;;;;;;;5.17;4.80;;;11.70;99.90;;;;;;4993703;28;20446;-67
2022/09/21 02:34:14;;;;;;;5.70;5.00;;;11.70;99.90;;;;;;4993273;28;20518;-67
2022/09/21 02:36:48;;;;;;;9.60;5.40;;;11.80;99.90;;;;;;5008378;28;20467;-67
2022/09/21 02:39:23;;;;;;;5.20;4.47;;;11.70;99.90;;;;;;5012306;28;20402;-67
2022/09/21 02:41:58;;;;;;;5.80;5.40;;;11.70;99.90;;;;;;5013091;28;20465;-67
2022/09/21 02:44:32;;;;;;;5.60;5.20;;;11.70;99.90;;;;;;5013082;28;20400;-67
2022/09/21 02:47:06;;;;;;;5.00;4.70;;;11.60;99.90;;;;;;5013118;28;20396;-67
2022/09/21 02:49:39;;;;;;;5.23;4.83;;;11.60;99.90;;;;;;5013229;28;20527;-67
2022/09/21 02:52:12;;;;;;;6.30;5.33;;;11.60;99.90;;;;;;5011310;28;20449;-67
2022/09/21 02:54:40;;;;;;;5.27;4.97;;;11.60;99.90;;;;;;5012978;28;20407;-67
2022/09/21 02:57:07;;;;;;;5.10;4.70;;;11.60;99.90;;;;;;5012231;28;20461;-67
2022/09/21 02:59:33;;;;;;;5.33;4.93;;;11.60;99.90;;;;;;4978298;28;20412;-67
2022/09/21 03:01:59;;;;;;;5.63;5.13;;;11.60;99.90;;;;;;5012053;28;20447;-77
2022/09/21 03:04:26;;;;;;;5.33;4.90;;;11.60;99.90;;;;;;5012837;28;20567;-67
2022/09/21 03:06:52;;;;;;;5.37;4.77;;;11.50;99.90;;;;;;5013140;28;20461;-67
2022/09/21 03:09:18;;;;;;;6.03;4.87;;;11.50;99.90;;;;;;5016282;28;20503;-67
2022/09/21 03:11:43;;;;;;;5.90;5.30;;;11.50;99.90;;;;;;5016754;28;20220;-67
2022/09/21 03:14:09;;;;;;;5.23;4.83;;;11.50;99.90;;;;;;5016535;28;20314;-67
2022/09/21 03:16:35;;;;;;;5.50;5.10;;;11.40;99.90;;;;;;5016751;28;20614;-67
2022/09/21 03:19:01;;;;;;;5.30;4.90;;;11.40;99.90;;;;;;5016172;28;20256;-67
2022/09/21 03:21:27;;;;;;;7.93;4.67;;;11.40;99.90;;;;;;5015790;28;20436;-67
2022/09/21 03:23:52;;;;;;;6.07;5.63;;;11.50;99.90;;;;;;5016661;28;20641;-67
2022/09/21 03:26:21;;;;;;;4.77;4.37;;;11.40;99.90;;;;;;5015986;28;20620;-67
2022/09/21 03:28:53;;;;;;;4.80;4.50;;;11.40;99.90;;;;;;5016198;28;20642;-67
2022/09/21 03:31:19;;;;;;;4.93;4.50;;;11.40;99.90;;;;;;5015858;28;20458;-67
2022/09/21 03:33:45;;;;;;;5.90;5.33;;;11.50;99.90;;;;;;5016296;28;20884;-67
2022/09/21 03:36:11;;;;;;;4.63;4.33;;;11.30;99.90;;;;;;5015803;28;20460;-67
2022/09/21 03:38:37;;;;;;;4.77;4.47;;;11.40;99.90;;;;;;5016296;28;20419;-67
2022/09/21 03:41:04;;;;;;;5.67;5.10;;;11.40;99.90;;;;;;4998131;28;20657;-68
2022/09/21 03:43:30;;;;;;;4.73;4.33;;;11.30;99.90;;;;;;5016400;28;20768;-67
2022/09/21 03:45:56;;;;;;;6.47;6.00;;;11.30;99.90;;;;;;5015913;28;20489;-67
2022/09/21 03:48:22;;;;;;;6.53;4.27;;;11.40;99.90;;;;;;5015573;28;20422;-67
2022/09/21 03:50:48;;;;;;;5.60;4.70;;;11.30;99.90;;;;;;5015087;28;20493;-67
2022/09/21 03:53:14;;;;;;;7.20;6.60;;;11.20;99.90;;;;;;5012030;28;20774;-67
2022/09/21 03:55:40;;;;;;;8.00;5.87;;;11.20;99.90;;;;;;4996462;28;20444;-67
2022/09/21 03:58:06;;;;;;;5.83;5.30;;;11.10;99.90;;;;;;4995879;28;20429;-67
2022/09/21 04:00:32;;;;;;;7.20;5.37;;;11.10;99.90;;;;;;4996357;28;20769;-67
2022/09/21 04:02:58;;;;;;;7.20;5.00;;;11.10;99.90;;;;;;4996285;28;20413;-67
2022/09/21 04:05:26;;;;;;;8.10;6.20;;;11.20;99.90;;;;;;4995807;28;20185;-67
2022/09/21 04:07:53;;;;;;;6.50;5.90;;;11.20;99.90;;;;;;4978666;28;20484;-67
2022/09/21 04:10:21;;;;;;;7.80;7.07;;;11.20;99.90;;;;;;4995269;28;20464;-67
2022/09/21 04:12:47;;;;;;;7.83;5.93;;;11.10;99.90;;;;;;4996168;28;20483;-67
2022/09/21 04:15:16;;;;;;;8.90;8.00;;;11.10;99.90;;;;;;4995539;28;20500;-68
2022/09/21 04:17:42;;;;;;;11.77;7.00;;;11.10;99.90;;;;;;4996109;28;20529;-67
2022/09/21 04:20:08;;;;;;;9.70;6.90;;;11.00;99.90;;;;;;4995452;28;20426;-68
2022/09/21 04:22:37;;;;;;;20.27;8.17;;;10.90;99.90;;;;;;5015512;28;20184;-67
2022/09/21 04:25:04;;;;;;;13.97;6.30;;;10.70;99.90;;;;;;5015260;28;20982;-67
2022/09/21 04:27:31;;;;;;;9.57;6.70;;;10.70;99.90;;;;;;5015511;28;20420;-67
2022/09/21 04:29:58;;;;;;;7.80;7.00;;;10.70;99.90;;;;;;5015492;28;20788;-67
2022/09/21 04:32:23;;;;;;;12.07;6.50;;;10.80;99.90;;;;;;5014692;28;20462;-67
2022/09/21 04:34:49;;;;;;;12.50;7.70;;;10.80;99.90;;;;;;5015445;28;20907;-67
2022/09/21 04:37:16;;;;;;;11.00;6.23;;;10.90;99.90;;;;;;5014816;28;20336;-67
2022/09/21 04:39:41;;;;;;;9.43;8.30;;;10.90;99.90;;;;;;5015177;28;20191;-67
2022/09/21 04:42:08;;;;;;;18.30;6.20;;;10.90;99.90;;;;;;5014332;28;20417;-67
2022/09/21 04:44:34;;;;;;;8.67;6.80;;;11.00;99.90;;;;;;5015290;28;20253;-67
2022/09/21 04:47:00;;;;;;;12.30;9.73;;;11.00;99.90;;;;;;5015123;28;20520;-67
2022/09/21 04:49:25;;;;;;;13.50;7.20;;;11.10;99.90;;;;;;4996959;28;20190;-67
2022/09/21 04:51:51;;;;;;;14.13;7.40;;;11.00;99.90;;;;;;5012027;28;20207;-67
2022/09/21 04:54:17;;;;;;;14.20;9.40;;;11.00;99.90;;;;;;5014402;28;20518;-67
2022/09/21 04:56:42;;;;;;;13.60;8.80;;;11.00;99.90;;;;;;5015003;28;20177;-67
2022/09/21 04:59:08;;;;;;;17.23;7.60;;;10.90;99.90;;;;;;5013989;28;20618;-67
2022/09/21 05:01:34;;;;;;;15.80;8.00;;;10.90;99.90;;;;;;5014547;28;20604;-67
2022/09/21 05:04:03;;;;;;;13.00;8.50;;;10.90;99.90;;;;;;5012786;28;20261;-67
2022/09/21 05:06:30;;;;;;;11.57;8.90;;;10.90;99.90;;;;;;5014355;28;20477;-67
2022/09/21 05:11:40;;;;;;;10.73;9.63;;;11.00;99.90;;;;;;5014397;28;20455;-67
2022/09/21 05:14:06;;;;;;;20.50;9.13;;;11.00;99.90;;;;;;5014551;28;20520;-67
2022/09/21 05:16:32;;;;;;;12.70;9.43;;;11.00;99.90;;;;;;5014518;28;20476;-67
2022/09/21 05:18:58;;;;;;;17.60;9.10;;;11.10;99.90;;;;;;5014507;28;20508;-67
2022/09/21 05:21:24;;;;;;;19.47;9.80;;;11.10;99.90;;;;;;5011779;28;20523;-67
2022/09/21 05:23:50;;;;;;;23.50;9.77;;;11.00;99.90;;;;;;5014435;28;20243;-67
2022/09/21 05:26:15;;;;;;;12.40;7.03;;;11.10;99.90;;;;;;5013445;28;20657;-67
2022/09/21 05:28:41;;;;;;;37.00;10.87;;;11.00;99.90;;;;;;5014339;28;20513;-67
2022/09/21 05:31:16;;;;;;;15.43;7.60;;;11.00;99.90;;;;;;5013991;28;20208;-67
2022/09/21 05:33:50;;;;;;;11.23;6.67;;;10.90;99.90;;;;;;5014336;28;20448;-68
2022/09/21 05:36:48;;;;;;;20.93;8.60;;;10.80;99.90;;;;;;5013273;28;20472;-67
2022/09/21 05:39:14;;;;;;;21.27;7.47;;;10.80;99.90;;;;;;5013519;28;20458;-67
2022/09/21 05:41:40;;;;;;;10.00;7.20;;;10.70;99.90;;;;;;5014062;28;20413;-67
2022/09/21 05:44:09;;;;;;;11.13;8.17;;;10.60;99.90;;;;;;5013745;28;20483;-67
2022/09/21 05:47:01;;;;;;;16.00;7.83;;;10.70;99.90;;;;;;5013903;28;20464;-67
2022/09/21 05:49:33;;;;;;;10.23;9.37;;;10.60;99.90;;;;;;5007388;28;20426;-68
2022/09/21 05:51:59;;;;;;;7.10;5.77;;;10.50;99.90;;;;;;4994217;28;20542;-67
2022/09/21 05:54:45;;;;;;;10.87;9.53;;;10.60;99.90;;;;;;4993566;28;20515;-67
2022/09/21 05:57:36;;;;;;;6.87;6.27;;;10.60;99.90;;;;;;4993261;28;20169;-68
2022/09/21 06:00:10;;;;;;;15.30;8.40;;;10.70;99.90;;;;;;4965993;28;20438;-67
2022/09/21 06:02:49;;;;;;;7.23;5.93;;;10.70;99.90;;;;;;4994289;28;20764;-67
2022/09/21 06:05:15;;;;;;;17.83;7.37;;;10.80;99.90;;;;;;4993741;28;20839;-67
2022/09/21 06:07:41;;;;;;;10.47;8.00;;;10.90;99.90;;;;;;4993995;28;20437;-67
2022/09/21 06:10:08;;;;;;;11.63;7.27;;;10.90;99.90;;;;;;4993950;28;20902;-67
2022/09/21 06:12:34;;;;;;;8.10;7.40;;;10.90;99.90;;;;;;4993233;28;20208;-67
2022/09/21 06:15:00;;;;;;;18.70;7.80;;;11.00;99.90;;;;;;4993944;28;20749;-67
2022/09/21 06:17:26;;;;;;;6.03;5.30;;;11.00;99.90;;;;;;4993277;28;20185;-67
2022/09/21 06:19:52;;;;;;;7.63;6.73;;;11.10;99.90;;;;;;4996280;28;20646;-67
2022/09/21 06:22:18;;;;;;;6.90;6.30;;;11.20;99.90;;;;;;4987493;28;20437;-68
2022/09/21 06:24:44;;;;;;;7.57;6.73;;;11.30;99.90;;;;;;4993725;28;20424;-68
2022/09/21 06:27:10;;;;;;;7.30;6.70;;;11.50;99.90;;;;;;4993653;28;20459;-68
2022/09/21 06:29:35;;;;;;;17.07;8.03;;;11.60;99.90;;;;;;4993084;28;20245;-68
2022/09/21 06:32:02;;;;;;;18.43;7.50;;;11.50;99.90;;;;;;4993516;28;20776;-67
2022/09/21 06:34:28;;;;;;;65.70;10.30;;;11.10;99.90;;;;;;4992791;28;20264;-68
2022/09/21 06:36:54;;;;;;;12.10;8.37;;;10.90;99.90;;;;;;4993587;28;20497;-67
2022/09/21 06:39:19;;;;;;;19.00;8.83;;;10.90;99.90;;;;;;4998048;28;20541;-67
2022/09/21 06:41:45;;;;;;;31.63;11.30;;;10.80;99.90;;;;;;5002750;28;20180;-67
2022/09/21 06:44:11;;;;;;;22.87;12.40;;;10.80;99.90;;;;;;5001151;28;20207;-67
2022/09/21 06:46:39;;;;;;;14.10;11.53;;;10.80;99.90;;;;;;5003270;28;20535;-67
2022/09/21 06:49:05;;;;;;;15.40;8.73;;;10.90;99.90;;;;;;5002080;28;20178;-67
2022/09/21 06:51:31;;;;;;;11.17;9.97;;;10.90;99.90;;;;;;5003001;28;20500;-67
2022/09/21 06:53:57;;;;;;;9.27;8.37;;;11.20;99.90;;;;;;5001859;28;20249;-67
2022/09/21 06:56:24;;;;;;;13.57;10.13;;;11.80;99.90;;;;;;5001953;28;20507;-67
2022/09/21 06:58:51;;;;;;;14.30;10.40;;;12.90;99.90;;;;;;5003287;28;20416;-67
2022/09/21 07:01:17;;;;;;;11.20;8.93;;;13.50;99.90;;;;;;5001430;28;20414;-68
2022/09/21 07:03:43;;;;;;;10.20;8.30;;;13.80;99.90;;;;;;5002082;28;20473;-68
2022/09/21 07:06:12;;;;;;;19.90;12.10;;;14.40;99.90;;;;;;5003524;28;20804;-68
2022/09/21 07:08:38;;;;;;;20.80;9.17;;;14.60;99.90;;;;;;5002066;28;20177;-67
2022/09/21 07:11:05;;;;;;;16.10;11.30;;;14.80;99.90;;;;;;5001923;28;20457;-68
2022/09/21 07:13:31;;;;;;;18.77;11.93;;;15.00;99.90;;;;;;4999959;28;20411;-68
2022/09/21 07:15:56;;;;;;;13.20;10.00;;;15.40;99.70;;;;;;5002728;28;20752;-67
2022/09/21 07:18:22;;;;;;;10.73;8.90;;;15.80;98.60;;;;;;5007949;28;20185;-68
2022/09/21 07:20:48;;;;;;;139.47;96.37;;;16.00;97.60;;;;;;5012679;28;20185;-67
2022/09/21 07:23:16;;;;;;;33.63;27.87;;;16.20;97.60;;;;;;5007955;28;20428;-70
2022/09/21 07:25:43;;;;;;;99.77;75.10;;;16.30;97.00;;;;;;5000646;28;20225;-67
2022/09/21 07:28:10;;;;;;;19.77;17.70;;;16.40;96.90;;;;;;4993069;28;20421;-67
2022/09/21 07:30:38;;;;;;;9.93;8.77;;;16.50;96.50;;;;;;4992040;28;20414;-68
2022/09/21 07:33:05;;;;;;;12.77;11.67;;;16.50;95.40;;;;;;4992986;28;20816;-67
2022/09/21 07:35:31;;;;;;;11.97;10.37;;;16.20;95.60;;;;;;4996198;28;20449;-67
2022/09/21 07:37:58;;;;;;;12.50;9.47;;;16.20;96.60;;;;;;5001203;28;20459;-68
2022/09/21 07:40:24;;;;;;;13.77;12.43;;;16.20;96.80;;;;;;5000702;28;20506;-69
2022/09/21 07:42:50;;;;;;;17.40;14.30;;;16.30;96.70;;;;;;5001166;28;20432;-67
2022/09/21 07:45:15;;;;;;;14.07;11.33;;;16.40;96.30;;;;;;5003611;28;20432;-77
2022/09/21 07:47:41;;;;;;;13.10;11.40;;;16.60;96.20;;;;;;4934027;28;20411;-68
2022/09/21 07:50:07;;;;;;;11.60;10.03;;;16.80;96.10;;;;;;5003174;28;20190;-68
2022/09/21 07:52:33;;;;;;;13.90;10.23;;;17.00;95.60;;;;;;5002150;28;20687;-67
2022/09/21 07:54:59;;;;;;;11.80;10.47;;;17.10;95.20;;;;;;5004637;28;20853;-68
2022/09/21 08:00:11;;;;;;;9.83;8.90;;;17.40;94.60;;;;;;5005726;28;20485;-68
2022/09/21 08:02:36;;;;;;;9.77;8.60;;;17.50;94.30;;;;;;5003450;28;20646;-69
2022/09/21 08:05:02;;;;;;;12.73;8.00;;;17.70;94.00;;;;;;5006930;28;20426;-68
2022/09/21 08:07:28;;;;;;;9.77;7.83;;;17.60;93.70;;;;;;5005333;28;20289;-68
2022/09/21 08:09:54;;;;;;;9.87;8.73;;;17.70;93.70;;;;;;5006267;28;20418;-68
2022/09/21 08:12:19;;;;;;;8.70;7.83;;;17.70;93.60;;;;;;5003335;28;20202;-68
2022/09/21 08:14:46;;;;;;;8.60;7.20;;;17.80;93.50;;;;;;5001227;28;20191;-67
2022/09/21 08:17:12;;;;;;;8.17;7.30;;;17.80;93.40;;;;;;4946456;28;20199;-68
2022/09/21 08:19:41;;;;;;;9.00;8.10;;;17.90;93.40;;;;;;5003752;28;20454;-68
2022/09/21 08:22:06;;;;;;;8.83;7.43;;;17.90;93.50;;;;;;5005759;28;20418;-68
2022/09/21 08:24:32;;;;;;;7.40;6.80;;;17.90;93.70;;;;;;5005202;28;20689;-68
2022/09/21 08:27:01;;;;;;;8.60;6.80;;;17.80;93.80;;;;;;5006651;28;20175;-68
2022/09/21 08:29:27;;;;;;;9.20;8.40;;;17.90;94.20;;;;;;5004352;28;20191;-68
2022/09/21 08:31:53;;;;;;;8.77;7.90;;;17.90;94.20;;;;;;5006241;28;20540;-68
2022/09/21 08:34:19;;;;;;;7.93;7.20;;;17.90;94.40;;;;;;4996175;28;20510;-73
2022/09/21 08:36:45;;;;;;;6.70;6.17;;;17.90;94.20;;;;;;5006317;28;20690;-68
2022/09/21 08:39:11;;;;;;;7.40;6.70;;;17.90;94.30;;;;;;5004930;28;20601;-68
2022/09/21 08:41:43;;;;;;;8.80;8.00;;;18.00;93.80;;;;;;5003386;28;20434;-68
2022/09/21 08:44:22;;;;;;;15.43;13.67;;;18.10;93.90;;;;;;5006082;28;20414;-68
2022/09/21 08:47:08;;;;;;;10.30;9.30;;;18.10;93.70;;;;;;5004633;28;20417;-68
2022/09/21 08:49:38;;;;;;;18.77;13.47;;;18.10;93.60;;;;;;5004237;28;20415;-68
2022/09/21 08:52:12;;;;;;;13.47;11.90;;;18.20;93.70;;;;;;5005717;28;20473;-68
2022/09/21 08:54:50;;;;;;;15.30;13.83;;;18.30;93.90;;;;;;5002273;28;20403;-68
2022/09/21 08:57:17;;;;;;;13.23;11.90;;;18.30;93.70;;;;;;5005258;28;20411;-68
2022/09/21 08:59:48;;;;;;;11.60;10.40;;;18.30;93.30;;;;;;5000342;28;20469;-68
2022/09/21 09:02:44;;;;;;;11.20;10.00;;;18.40;94.10;;;;;;5003163;28;20513;-68
2022/09/21 09:05:28;;;;;;;10.20;8.97;;;18.50;94.80;;;;;;5009190;28;20488;-69
2022/09/21 09:08:17;;;;;;;8.30;7.37;;;18.60;94.60;;;;;;5014541;28;20468;-68
2022/09/21 09:11:08;;;;;;;9.37;7.00;;;18.50;93.90;;;;;;5014047;28;20492;-68
2022/09/21 09:13:54;;;;;;;9.53;8.53;;;18.50;93.40;;;;;;5013294;28;20433;-68
2022/09/21 09:16:33;;;;;;;9.30;7.37;;;18.50;93.60;;;;;;5006112;28;20422;-68
2022/09/21 09:19:16;;;;;;;9.07;8.07;;;18.10;92.50;;;;;;5004962;28;20472;-68
2022/09/21 09:21:43;;;;;;;11.37;7.30;;;17.90;92.20;;;;;;5009389;28;20409;-68
2022/09/21 09:24:40;;;;;;;6.37;5.77;;;17.60;93.60;;;;;;5003199;28;20453;-68
2022/09/21 09:27:16;;;;;;;7.53;6.83;;;17.40;94.50;;;;;;5003161;28;20804;-68
2022/09/21 09:30:03;;;;;;;5.23;4.83;;;17.10;94.80;;;;;;5000786;28;20571;-68
2022/09/21 09:32:52;;;;;;;9.87;8.73;;;17.00;95.30;;;;;;5004066;28;20945;-68
2022/09/21 09:35:32;;;;;;;10.37;9.27;;;17.10;95.70;;;;;;4999281;28;20480;-68
2022/09/21 09:38:13;;;;;;;11.47;8.27;;;17.60;95.20;;;;;;4978104;28;20444;-68
2022/09/21 09:40:44;;;;;;;12.27;8.47;;;17.90;94.10;;;;;;5006725;28;20752;-68
2022/09/21 09:43:36;;;;;;;9.97;9.07;;;18.20;92.50;;;;;;5004334;28;20427;-68
2022/09/21 09:46:16;;;;;;;4.37;4.07;;;18.40;91.60;;;;;;5003622;28;20396;-68
2022/09/21 09:49:19;;;;;;;3.93;3.73;;;18.70;91.10;;;;;;5003070;28;20771;-68
2022/09/21 09:51:45;;;;;;;4.47;4.17;;;18.80;88.40;;;;;;5002957;28;20959;-71
2022/09/21 09:54:16;;;;;;;3.63;3.43;;;18.60;87.00;;;;;;5002068;28;20956;-68
2022/09/21 09:56:42;;;;;;;4.43;3.80;;;18.70;90.00;;;;;;5001492;28;20418;-68
2022/09/21 09:59:27;;;;;;;3.77;3.50;;;18.80;89.00;;;;;;5003685;28;20410;-68
2022/09/21 10:02:17;;;;;;;5.13;3.50;;;18.90;88.20;;;;;;5001241;28;20439;-69
2022/09/21 10:05:20;;;;;;;3.80;3.60;;;18.90;89.70;;;;;;5002911;28;20426;-68
2022/09/21 10:07:45;;;;;;;2.93;2.30;;;19.10;89.30;;;;;;4988515;28;20452;-68
2022/09/21 10:10:20;;;;;;;3.90;3.70;;;19.20;89.80;;;;;;5003331;28;20901;-68
2022/09/21 10:12:47;;;;;;;3.43;3.23;;;19.40;85.10;;;;;;5007724;28;20223;-68
2022/09/21 10:15:16;;;;;;;3.20;3.00;;;19.30;84.20;;;;;;5001365;28;20415;-68
2022/09/21 10:17:44;;;;;;;2.07;1.87;;;19.40;81.00;;;;;;5002641;28;20426;-68
2022/09/21 10:20:17;;;;;;;3.57;3.47;;;19.30;75.80;;;;;;5001398;28;20410;-68
2022/09/21 10:22:47;;;;;;;5.07;3.00;;;19.40;80.40;;;;;;5001690;28;20423;-68
2022/09/21 10:25:18;;;;;;;4.73;4.43;;;19.40;83.00;;;;;;5001105;28;20416;-68
2022/09/21 10:27:47;;;;;;;3.38;3.08;;;19.40;84.30;;;;;;5000783;28;20771;-68
2022/09/21 10:30:34;;;;;;;2.60;2.40;;;19.50;82.70;;;;;;5000738;28;20884;-68
2022/09/21 10:33:00;;;;;;;4.53;3.37;;;19.40;81.50;;;;;;5001540;28;20214;-68
2022/09/21 10:35:27;;;;;;;5.13;4.20;;;19.20;82.90;;;;;;4999767;28;20573;-68
2022/09/21 10:38:16;;;;;;;5.18;3.60;;;19.20;92.40;;;;;;5001620;28;20435;-69
2022/09/21 10:40:44;;;;;;;3.80;3.50;;;19.40;88.80;;;;;;5000451;28;20777;-68
2022/09/21 10:43:24;;;;;;;4.40;4.00;;;19.40;89.60;;;;;;4999996;28;20821;-69
2022/09/21 10:45:56;;;;;;;2.72;2.30;;;19.40;91.10;;;;;;5001476;28;20905;-70
2022/09/21 10:48:25;;;;;;;2.53;2.30;;;19.50;87.80;;;;;;5001453;28;20214;-68
2022/09/21 10:50:52;;;;;;;3.90;3.60;;;19.50;86.50;;;;;;5000743;28;20787;-69
2022/09/21 10:53:23;;;;;;;7.23;3.90;;;19.40;90.00;;;;;;5000985;28;20470;-68
2022/09/21 10:55:56;;;;;;;11.47;10.17;;;19.40;88.00;;;;;;5001359;28;20788;-68
2022/09/21 10:58:21;;;;;;;2.57;2.07;;;19.50;86.30;;;;;;5001047;28;20423;-68
2022/09/21 11:00:50;;;;;;;4.13;3.50;;;19.60;85.90;;;;;;4995652;28;20424;-68
2022/09/21 11:03:35;;;;;;;2.73;2.53;;;19.80;86.20;;;;;;5003911;28;20715;-68
2022/09/21 11:06:08;;;;;;;4.13;3.93;;;19.70;84.70;;;;;;4999012;28;20509;-68
2022/09/21 11:08:56;;;;;;;4.43;3.40;;;19.70;83.70;;;;;;5003007;28;20476;-68
2022/09/21 11:11:36;;;;;;;3.70;3.60;;;19.70;81.80;;;;;;4989352;28;20524;-68
2022/09/21 11:14:33;;;;;;;4.37;3.97;;;19.90;75.50;;;;;;4993301;28;20457;-68
2022/09/21 11:17:12;;;;;;;4.77;4.33;;;20.00;77.50;;;;;;4942867;28;20850;-68
2022/09/21 11:20:01;;;;;;;3.10;3.00;;;20.10;78.40;;;;;;4992220;28;20917;-68
2022/09/21 11:22:54;;;;;;;3.10;2.80;;;20.10;77.00;;;;;;5001813;28;20917;-68
2022/09/21 11:25:42;;;;;;;3.00;2.90;;;20.20;76.00;;;;;;5002398;28;20433;-69
2022/09/21 11:28:41;;;;;;;3.40;3.20;;;20.20;75.90;;;;;;5001760;28;20430;-69
2022/09/21 11:31:54;;;;;;;3.30;3.20;;;20.10;72.20;;;;;;5000378;28;20473;-68
2022/09/21 11:34:36;;;;;;;1.90;1.80;;;19.90;63.00;;;;;;4934983;29;20934;-68
2022/09/21 11:37:04;;;;;;;1.90;1.80;;;19.80;69.40;;;;;;5000110;28;20457;-69
2022/09/21 11:39:56;;;;;;;2.60;2.30;;;19.70;75.30;;;;;;5004407;28;20517;-68
2022/09/21 11:42:27;;;;;;;2.43;2.30;;;19.90;79.30;;;;;;5006471;28;20504;-68
2022/09/21 11:44:57;;;;;;;3.20;3.00;;;20.10;76.70;;;;;;4977290;28;20418;-68
2022/09/21 11:47:38;;;;;;;3.20;3.07;;;20.20;81.30;;;;;;4998635;28;20476;-68
2022/09/21 11:50:35;;;;;;;2.97;2.77;;;20.20;80.30;;;;;;5004870;28;20446;-68
2022/09/21 11:53:12;;;;;;;4.27;2.87;;;20.40;73.10;;;;;;5004048;28;20493;-68
2022/09/21 11:55:51;;;;;;;4.17;3.80;;;20.70;72.50;;;;;;5003503;28;20430;-69
2022/09/21 11:58:49;;;;;;;3.70;3.60;;;20.90;73.10;;;;;;5003468;28;20430;-75
2022/09/21 12:01:57;;;;;;;4.00;3.80;;;20.90;73.80;;;;;;4963132;28;20433;-68
2022/09/21 12:04:50;;;;;;;3.70;3.57;;;20.60;73.10;;;;;;5002843;28;20426;-68
2022/09/21 12:07:51;;;;;;;3.67;3.47;;;20.60;69.30;;;;;;5005700;28;20425;-70
2022/09/21 12:10:48;;;;;;;2.73;2.60;;;20.70;64.90;;;;;;5005781;28;20414;-69
2022/09/21 12:13:28;;;;;;;2.83;2.73;;;20.60;66.10;;;;;;5005661;28;20757;-70
2022/09/21 12:16:12;;;;;;;2.77;2.57;;;20.30;68.20;;;;;;5005608;28;20456;-69
2022/09/21 12:18:46;;;;;;;2.73;2.63;;;20.10;69.90;;;;;;5005127;28;20429;-69
2022/09/21 12:21:23;;;;;;;3.20;2.80;;;20.00;70.40;;;;;;5008340;28;20425;-68
2022/09/21 12:24:09;;;;;;;233.53;138.67;;;19.80;69.10;;;;;;5001991;28;20443;-68
2022/09/21 12:26:57;;;;;;;156.87;104.47;;;19.80;69.80;;;;;;5004715;28;20422;-69
2022/09/21 12:29:29;;;;;;;9.10;8.23;;;19.80;66.90;;;;;;5003790;28;20441;-68
2022/09/21 12:32:03;;;;;;;1.70;1.67;;;19.30;63.50;;;;;;5002091;28;20478;-69
2022/09/21 12:34:40;;;;;;;4.03;3.73;;;18.90;64.60;;;;;;5003222;28;20433;-68
2022/09/21 12:37:15;;;;;;;2.33;2.17;;;19.00;69.40;;;;;;5005923;28;20469;-68
2022/09/21 12:39:57;;;;;;;2.97;2.77;;;18.90;67.50;;;;;;4953499;28;20530;-70
2022/09/21 12:42:47;;;;;;;2.30;2.20;;;18.70;65.60;;;;;;5005771;28;20414;-68
2022/09/21 12:45:21;;;;;;;2.50;2.40;;;18.40;63.10;;;;;;4995581;28;20411;-68
2022/09/21 12:48:13;;;;;;;7.37;6.73;;;18.40;64.30;;;;;;5003506;28;20415;-68
2022/09/21 12:50:57;;;;;;;3.87;2.23;;;18.40;70.50;;;;;;5004300;28;20398;-68
2022/09/21 12:53:27;;;;;;;2.33;2.20;;;18.60;67.70;;;;;;5005646;28;20437;-68
2022/09/21 12:56:02;;;;;;;2.20;2.10;;;18.40;64.10;;;;;;5003144;28;20493;-68
2022/09/21 12:58:37;;;;;;;2.00;1.90;;;18.20;65.00;;;;;;5002928;28;20434;-68
2022/09/21 13:01:22;;;;;;;2.60;2.40;;;18.10;65.40;;;;;;5003103;28;20422;-68
2022/09/21 13:04:02;;;;;;;2.50;2.23;;;18.10;67.70;;;;;;5003168;28;20412;-68
2022/09/21 13:06:51;;;;;;;3.50;3.20;;;18.20;68.10;;;;;;5002311;28;20429;-68
2022/09/21 13:09:19;;;;;;;6.40;3.87;;;18.50;79.60;;;;;;5004319;28;20524;-68
2022/09/21 13:11:55;;;;;;;2.97;2.60;;;18.80;78.80;;;;;;5002477;28;20661;-68
2022/09/21 13:14:25;;;;;;;2.77;2.63;;;18.90;70.00;;;;;;5005205;28;20473;-72
2022/09/21 13:17:00;;;;;;;4.53;4.33;;;18.90;70.70;;;;;;5003000;28;20864;-69